Time;durP1;ratioP1;P1;durP2;ratioP2;P2;SDS_P1;SDS_P2;PMS_P1;PMS_P2;Temp;Humidity;BMP_temperature;BMP_pressure;BME280_temperature;BME280_humidity;BME280_pressure;Samples;Min_cycle;Max_cycle;Signal;HPM_P1;HPM_P2
2023/08/01 00:02:24;;;;;;;;;7.00;6.00;;;;;22.30;100.00;98068.66;6039426;28;97676;-61
2023/08/01 00:05:27;;;;;;;;;8.00;7.75;;;;;22.24;100.00;98069.91;6026933;28;98582;-61
2023/08/01 00:08:30;;;;;;;;;9.00;8.75;;;;;22.21;100.00;98064.25;6043282;28;96601;-61
2023/08/01 00:11:33;;;;;;;;;6.20;6.20;;;;;22.22;100.00;98066.69;6042534;28;96932;-61
2023/08/01 00:14:38;;;;;;;;;8.80;8.80;;;;;22.19;100.00;98067.31;6042137;28;96698;-61
2023/08/01 00:17:41;;;;;;;;;9.00;9.00;;;;;22.21;100.00;98058.78;6025643;28;96767;-62
2023/08/01 00:20:44;;;;;;;;;7.00;7.00;;;;;22.16;100.00;98062.47;6043143;28;97684;-61
2023/08/01 00:23:47;;;;;;;;;9.00;8.00;;;;;22.17;100.00;98057.78;6042157;28;96397;-61
2023/08/01 00:26:54;;;;;;;;;8.00;8.00;;;;;22.21;100.00;98045.84;6042619;28;96427;-61
2023/08/01 00:29:59;;;;;;;;;8.00;8.00;;;;;22.28;100.00;98045.41;6042776;28;96933;-63
2023/08/01 00:33:02;;;;;;;;;9.00;8.00;;;;;22.19;100.00;98033.56;6055012;28;96780;-61
2023/08/01 00:36:08;;;;;;;;;9.40;8.40;;;;;22.28;100.00;98031.69;6031258;28;99722;-61
2023/08/01 00:39:12;;;;;;;;;7.75;7.75;;;;;22.34;100.00;98027.63;6026131;28;96589;-61
2023/08/01 00:42:16;;;;;;;;;8.00;7.75;;;;;22.39;100.00;98017.31;6043247;28;97546;-61
2023/08/01 00:45:21;;;;;;;;;9.00;9.00;;;;;22.41;100.00;98022.50;6041983;28;96364;-61
2023/08/01 00:48:24;;;;;;;;;9.25;9.25;;;;;22.52;100.00;98023.00;6026668;28;96684;-61
2023/08/01 00:51:30;;;;;;;;;6.40;6.00;;;;;22.44;100.00;98013.59;6053566;28;96550;-61
2023/08/01 00:54:36;;;;;;;;;8.00;7.00;;;;;22.43;100.00;98007.31;6056911;28;96936;-61
2023/08/01 00:57:40;;;;;;;;;8.00;8.00;;;;;22.51;100.00;98004.91;6025794;28;98498;-61
2023/08/01 01:00:46;;;;;;;;;9.60;9.00;;;;;22.62;100.00;97998.78;6024644;28;97388;-62
2023/08/01 01:03:51;;;;;;;;;6.40;6.40;;;;;22.67;100.00;98000.56;6025837;28;96446;-61
2023/08/01 01:07:00;;;;;;;;;8.60;8.00;;;;;22.73;100.00;97994.63;6043356;28;96338;-61
2023/08/01 01:10:04;;;;;;;;;7.00;6.00;;;;;22.71;100.00;97996.09;6021650;28;97551;-61
2023/08/01 01:13:07;;;;;;;;;6.00;6.00;;;;;22.68;100.00;97981.00;6025835;28;98661;-61
2023/08/01 01:16:12;;;;;;;;;6.20;6.00;;;;;22.63;100.00;97977.59;6042676;28;96397;-61
2023/08/01 01:19:16;;;;;;;;;7.00;6.00;;;;;22.61;100.00;97969.69;6025994;28;96336;-61
2023/08/01 01:22:20;;;;;;;;;8.25;7.25;;;;;22.57;100.00;97956.94;6042750;28;96460;-61
2023/08/01 01:25:25;;;;;;;;;8.00;7.00;;;;;22.70;100.00;97966.94;6029438;28;97357;-61
2023/08/01 01:28:30;;;;;;;;;9.40;9.40;;;;;22.61;100.00;97957.91;6046548;28;96394;-62
2023/08/01 01:31:34;;;;;;;;;8.00;7.60;;;;;22.62;100.00;97957.59;6028997;28;97179;-61
2023/08/01 01:34:37;;;;;;;;;10.00;9.00;;;;;22.62;100.00;97943.84;6029826;28;100179;-61
2023/08/01 01:37:42;;;;;;;;;8.00;8.00;;;;;22.57;100.00;97943.19;6044052;28;98499;-62
2023/08/01 01:40:45;;;;;;;;;7.50;7.50;;;;;22.55;100.00;97937.19;6046687;28;96392;-61
2023/08/01 01:43:48;;;;;;;;;8.40;8.00;;;;;22.52;100.00;97938.66;6044001;28;96971;-62
2023/08/01 01:46:52;;;;;;;;;6.75;6.75;;;;;22.48;100.00;97932.19;6061154;28;96223;-61
2023/08/01 01:49:55;;;;;;;;;7.00;7.00;;;;;22.33;100.00;97907.97;6045293;28;96465;-61
2023/08/01 01:53:00;;;;;;;;;7.00;7.00;;;;;22.40;100.00;97914.59;6028120;28;97087;-62
2023/08/01 01:56:04;;;;;;;;;7.75;7.00;;;;;22.39;100.00;97917.63;6060150;28;96504;-61
2023/08/01 01:59:07;;;;;;;;;6.00;5.25;;;;;22.41;100.00;97907.16;6041995;28;98385;-63
2023/08/01 02:02:10;;;;;;;;;9.00;9.00;;;;;22.42;100.00;97904.09;6029157;28;99497;-61
2023/08/01 02:05:13;;;;;;;;;7.00;6.00;;;;;22.44;100.00;97909.25;6028917;28;96769;-61
2023/08/01 02:08:18;;;;;;;;;9.00;8.00;;;;;22.40;100.00;97902.78;6045083;28;96611;-61
2023/08/01 02:11:21;;;;;;;;;10.50;9.50;;;;;22.39;100.00;97903.91;6044610;28;98896;-61
2023/08/01 02:14:25;;;;;;;;;9.40;8.40;;;;;22.32;100.00;97898.91;6059299;28;96911;-61
2023/08/01 02:17:29;;;;;;;;;7.00;7.00;;;;;22.25;100.00;97886.78;6053964;28;96238;-61
2023/08/01 02:20:32;;;;;;;;;7.00;7.00;;;;;22.18;100.00;97884.53;6060864;28;96538;-61
2023/08/01 02:23:37;;;;;;;;;8.00;8.00;;;;;22.16;100.00;97878.53;6035760;28;96670;-61
2023/08/01 02:26:40;;;;;;;;;6.20;6.20;;;;;22.08;100.00;97876.59;6042596;28;99167;-61
2023/08/01 02:29:44;;;;;;;;;7.75;7.00;;;;;22.00;100.00;97852.69;6028019;28;96682;-62
2023/08/01 02:32:47;;;;;;;;;7.50;7.50;;;;;22.17;100.00;97863.69;6018199;29;98882;-60
2023/08/01 02:35:50;;;;;;;;;8.50;8.50;;;;;22.14;100.00;97864.31;6022059;29;97974;-61
2023/08/01 02:38:55;;;;;;;;;7.00;7.00;;;;;21.90;100.00;97840.03;6019466;29;96435;-60
2023/08/01 02:41:58;;;;;;;;;7.60;7.00;;;;;22.02;100.00;97872.38;6037016;28;96471;-62
2023/08/01 02:45:01;;;;;;;;;8.00;7.00;;;;;22.01;100.00;97865.28;6031484;28;96507;-61
2023/08/01 02:48:05;;;;;;;;;7.00;7.00;;;;;21.95;100.00;97870.09;6021690;28;96414;-61
2023/08/01 02:51:09;;;;;;;;;8.00;7.20;;;;;21.95;100.00;97869.28;6020155;29;96803;-60
2023/08/01 02:54:14;;;;;;;;;7.00;7.00;;;;;21.96;100.00;97860.75;6020426;28;99068;-61
2023/08/01 02:57:17;;;;;;;;;8.80;8.20;;;;;21.87;100.00;97865.38;6019986;29;98464;-61
2023/08/01 03:00:21;;;;;;;;;8.00;7.00;;;;;21.89;100.00;97865.09;6018402;29;96672;-61
2023/08/01 03:03:24;;;;;;;;;9.00;8.40;;;;;21.89;100.00;97863.13;6021965;29;96490;-61
2023/08/01 03:06:27;;;;;;;;;7.50;6.50;;;;;21.87;100.00;97851.66;6014619;28;96738;-62
2023/08/01 03:09:33;;;;;;;;;8.40;7.40;;;;;21.83;100.00;97847.16;6020276;29;96249;-61
2023/08/01 03:12:36;;;;;;;;;8.00;6.00;;;;;21.90;100.00;97842.78;6013277;29;96363;-61
2023/08/01 03:15:39;;;;;;;;;9.00;9.00;;;;;21.92;100.00;97853.44;6021654;29;96934;-61
2023/08/01 03:18:43;;;;;;;;;8.00;7.20;;;;;21.89;100.00;97840.38;6019493;28;98649;-61
2023/08/01 03:21:46;;;;;;;;;8.20;7.00;;;;;21.86;100.00;97838.25;6019856;29;97250;-60
2023/08/01 03:24:51;;;;;;;;;5.00;5.00;;;;;21.84;100.00;97835.06;6021863;29;97073;-61
2023/08/01 03:27:54;;;;;;;;;8.00;8.00;;;;;21.83;100.00;97839.72;6021174;28;96748;-61
2023/08/01 03:30:58;;;;;;;;;9.60;9.00;;;;;21.85;100.00;97834.72;6028901;28;96752;-62
2023/08/01 03:34:01;;;;;;;;;8.67;8.67;;;;;21.83;100.00;97834.25;6027058;28;99636;-61
2023/08/01 03:37:05;;;;;;;;;9.75;8.75;;;;;21.77;100.00;97826.47;6025067;28;98525;-61
2023/08/01 03:40:10;;;;;;;;;8.20;8.20;;;;;21.77;100.00;97829.22;6041816;28;97007;-60
2023/08/01 03:43:14;;;;;;;;;10.20;9.20;;;;;21.80;100.00;97826.63;6027510;28;98505;-61
2023/08/01 03:46:17;;;;;;;;;11.80;10.80;;;;;21.86;100.00;97821.81;6031473;28;98494;-60
2023/08/01 03:49:20;;;;;;;;;10.00;9.00;;;;;21.94;100.00;97830.06;6026802;28;96985;-60
2023/08/01 03:52:23;;;;;;;;;7.00;7.00;;;;;22.00;100.00;97817.81;6043085;28;96795;-61
2023/08/01 03:55:28;;;;;;;;;8.00;6.00;;;;;22.15;100.00;97812.97;6044137;28;96860;-61
2023/08/01 03:58:31;;;;;;;;;6.00;6.00;;;;;22.33;100.00;97815.38;6041988;28;96690;-61
2023/08/01 04:01:34;;;;;;;;;6.00;6.00;;;;;22.52;100.00;97811.50;6024395;28;97173;-60
2023/08/01 04:04:38;;;;;;;;;8.00;7.50;;;;;22.72;100.00;97808.13;6025534;28;97937;-61
2023/08/01 04:07:42;;;;;;;;;6.75;6.00;;;;;22.92;100.00;97807.41;6026917;28;97936;-61
2023/08/01 04:10:47;;;;;;;;;5.50;5.25;;;;;23.08;100.00;97811.22;6043348;28;96853;-61
2023/08/01 04:13:50;;;;;;;;;9.00;8.00;;;;;23.14;100.00;97796.19;6055928;28;96384;-61
2023/08/01 04:16:53;;;;;;;;;6.00;6.00;;;;;23.27;100.00;97808.88;6043358;28;96286;-61
2023/08/01 04:19:57;;;;;;;;;6.80;6.80;;;;;23.27;100.00;97813.56;6042535;28;96876;-61
2023/08/01 04:23:00;;;;;;;;;6.00;6.00;;;;;23.38;100.00;97805.78;6027902;28;96717;-61
2023/08/01 04:26:06;;;;;;;;;5.00;5.00;;;;;23.39;100.00;97799.94;6025858;28;96780;-61
2023/08/01 04:29:09;;;;;;;;;4.00;4.00;;;;;23.50;100.00;97795.72;6026221;28;96889;-60
2023/08/01 04:32:14;;;;;;;;;7.50;7.25;;;;;23.45;100.00;97773.91;6047951;28;96812;-60
2023/08/01 04:35:17;;;;;;;;;9.00;8.40;;;;;23.67;100.00;97787.34;6026653;28;96592;-61
2023/08/01 04:38:20;;;;;;;;;6.40;6.00;;;;;23.79;100.00;97794.88;6026207;28;96931;-61
2023/08/01 04:41:25;;;;;;;;;4.00;4.00;;;;;23.79;100.00;97794.88;6043848;28;96438;-61
2023/08/01 04:44:29;;;;;;;;;7.00;6.40;;;;;23.80;100.00;97781.94;6056896;28;96884;-61
2023/08/01 04:47:32;;;;;;;;;9.00;9.00;;;;;23.87;100.00;97782.19;6039748;28;96737;-61
2023/08/01 04:50:35;;;;;;;;;7.00;7.00;;;;;23.80;100.00;97771.72;6039367;28;97210;-61
2023/08/01 04:53:38;;;;;;;;;4.20;4.20;;;;;23.81;100.00;97781.59;6025458;28;98451;-61
2023/08/01 04:56:43;;;;;;;;;7.25;6.25;;;;;23.84;100.00;97769.94;6025330;28;99509;-61
2023/08/01 04:59:47;;;;;;;;;7.00;7.00;;;;;23.94;100.00;97775.03;6041356;28;97122;-61
2023/08/01 05:02:50;;;;;;;;;7.00;7.00;;;;;23.86;100.00;97764.06;6055452;28;96619;-61
2023/08/01 05:05:53;;;;;;;;;6.00;6.00;;;;;23.98;100.00;97773.22;6042829;28;97172;-62
2023/08/01 05:08:56;;;;;;;;;6.00;6.00;;;;;23.99;100.00;97763.81;6040909;28;96457;-61
2023/08/01 05:12:01;;;;;;;;;9.40;9.40;;;;;24.01;100.00;97760.72;6041234;28;96627;-61
2023/08/01 05:15:05;;;;;;;;;8.00;7.00;;;;;24.02;100.00;97749.38;6045953;28;97256;-61
2023/08/01 05:18:08;;;;;;;;;8.00;7.25;;;;;24.09;100.00;97755.13;6043839;28;96626;-60
2023/08/01 05:21:12;;;;;;;;;7.00;6.40;;;;;24.24;100.00;97750.19;6029817;28;96980;-61
2023/08/01 05:24:15;;;;;;;;;9.40;8.40;;;;;24.14;100.00;97746.66;6042503;28;96628;-61
2023/08/01 05:27:20;;;;;;;;;5.00;5.00;;;;;24.05;100.00;97762.44;6047272;28;96525;-62
2023/08/01 05:30:23;;;;;;;;;5.00;4.75;;;;;24.19;100.00;97747.66;6030877;28;96780;-61
2023/08/01 05:33:26;;;;;;;;;5.00;4.20;;;;;24.34;100.00;97749.75;6039948;28;96945;-62
2023/08/01 05:36:29;;;;;;;;;6.60;6.60;;;;;24.45;100.00;97750.94;6039993;28;96830;-61
2023/08/01 05:39:32;;;;;;;;;6.00;5.00;;;;;24.55;100.00;97756.84;6036917;28;96896;-61
2023/08/01 05:42:37;;;;;;;;;6.00;6.00;;;;;24.79;100.00;97758.03;6015431;28;99636;-62
2023/08/01 05:45:40;;;;;;;;;3.00;3.00;;;;;25.00;100.00;97750.53;6033743;28;97439;-61
2023/08/01 05:48:43;;;;;;;;;4.00;4.00;;;;;25.23;100.00;97748.91;6010272;28;96865;-61
2023/08/01 05:51:46;;;;;;;;;7.60;7.00;;;;;25.37;100.00;97754.91;6045758;28;96475;-63
2023/08/01 05:54:50;;;;;;;;;6.00;4.60;;;;;25.62;100.00;97754.91;6013952;28;97443;-61
2023/08/01 05:57:54;;;;;;;;;4.00;3.60;;;;;25.61;100.00;97751.34;6047003;28;96370;-61
2023/08/01 06:00:58;;;;;;;;;8.00;8.00;;;;;25.65;100.00;97749.50;6022982;28;98585;-60
2023/08/01 06:04:02;;;;;;;;;6.00;6.00;;;;;25.91;100.00;97745.53;6047781;28;96666;-61
2023/08/01 06:07:06;;;;;;;;;4.00;3.80;;;;;26.01;100.00;97770.69;6027315;28;96501;-61
2023/08/01 06:10:09;;;;;;;;;3.40;3.00;;;;;26.11;100.00;97755.59;6043724;28;96225;-62
2023/08/01 06:13:14;;;;;;;;;5.60;5.00;;;;;26.23;100.00;97747.31;6027480;28;97807;-61
2023/08/01 06:16:17;;;;;;;;;5.00;5.00;;;;;26.19;100.00;97760.97;6020745;28;96445;-61
2023/08/01 06:19:21;;;;;;;;;4.50;4.50;;;;;26.27;100.00;97750.97;6040288;28;96939;-62
2023/08/01 06:22:24;;;;;;;;;4.60;4.60;;;;;26.33;100.00;97751.53;6021898;28;96306;-61
2023/08/01 06:25:27;;;;;;;;;4.60;4.60;;;;;26.32;100.00;97755.44;6028064;28;98036;-62
2023/08/01 06:28:32;;;;;;;;;5.00;5.00;;;;;26.34;100.00;97748.38;6052667;28;96959;-63
2023/08/01 06:31:35;;;;;;;;;3.00;3.00;;;;;26.42;100.00;97750.22;6038289;28;97070;-61
2023/08/01 06:34:39;;;;;;;;;5.00;5.00;;;;;26.26;100.00;97747.41;6046721;28;98642;-62
2023/08/01 06:37:42;;;;;;;;;7.75;6.75;;;;;26.19;100.00;97744.38;6020147;29;96342;-62
2023/08/01 06:40:45;;;;;;;;;4.00;4.00;;;;;26.22;100.00;97749.25;6025483;28;97072;-62
2023/08/01 06:43:50;;;;;;;;;6.00;5.00;;;;;26.08;100.00;97748.00;6025392;28;96579;-62
2023/08/01 06:46:53;;;;;;;;;3.80;3.80;;;;;25.87;100.00;97751.75;6041003;28;96855;-62
2023/08/01 06:49:56;;;;;;;;;6.00;6.00;;;;;25.74;100.00;97744.66;6034027;28;96469;-62
2023/08/01 06:53:00;;;;;;;;;6.00;6.00;;;;;25.72;100.00;97735.91;6059018;28;97301;-62
2023/08/01 06:56:04;;;;;;;;;5.00;4.25;;;;;25.77;100.00;97718.31;6045246;28;97655;-62
2023/08/01 06:59:08;;;;;;;;;5.60;5.00;;;;;25.80;100.00;97723.13;6045057;28;96458;-62
2023/08/01 07:02:12;;;;;;;;;7.00;7.00;;;;;25.80;100.00;97728.66;6042920;28;98518;-62
2023/08/01 07:05:15;;;;;;;;;5.00;4.80;;;;;25.76;100.00;97728.53;6046841;28;96378;-62
2023/08/01 07:08:18;;;;;;;;;6.00;6.00;;;;;25.85;100.00;97731.19;6045112;28;97050;-62
2023/08/01 07:11:22;;;;;;;;;7.00;7.00;;;;;25.89;100.00;97726.56;6025867;28;96418;-62
2023/08/01 07:14:26;;;;;;;;;5.00;4.50;;;;;25.86;100.00;97725.28;6021742;28;97192;-64
2023/08/01 07:17:29;;;;;;;;;6.00;6.00;;;;;25.86;100.00;97721.72;6045562;28;96600;-63
2023/08/01 07:20:33;;;;;;;;;5.40;5.40;;;;;25.76;100.00;97733.25;6027033;28;96586;-62
2023/08/01 07:23:37;;;;;;;;;8.00;7.40;;;;;25.58;100.00;97731.91;6045449;28;97880;-62
2023/08/01 07:26:40;;;;;;;;;6.00;5.75;;;;;25.68;100.00;97729.47;6045225;28;97947;-61
2023/08/01 07:29:45;;;;;;;;;7.00;7.00;;;;;25.75;100.00;97723.38;6028917;28;98422;-62
2023/08/01 07:32:49;;;;;;;;;6.00;6.00;;;;;25.84;100.00;97727.63;6032284;28;96748;-62
2023/08/01 07:35:52;;;;;;;;;8.20;8.20;;;;;25.84;100.00;97719.34;6043395;28;97648;-61
2023/08/01 07:38:56;;;;;;;;;7.00;7.00;;;;;25.92;100.00;97716.75;6039773;28;96874;-63
2023/08/01 07:41:59;;;;;;;;;6.00;5.50;;;;;26.05;100.00;97707.28;6056870;28;96474;-63
2023/08/01 07:45:06;;;;;;;;;6.00;6.00;;;;;26.09;100.00;97711.78;6057815;28;96323;-62
2023/08/01 07:48:09;;;;;;;;;6.50;6.25;;;;;26.11;100.00;97712.19;6055440;28;98404;-61
2023/08/01 07:51:14;;;;;;;;;7.00;7.00;;;;;25.95;100.00;97716.06;6027196;28;96776;-62
2023/08/01 07:54:17;;;;;;;;;5.00;5.00;;;;;26.12;100.00;97704.72;6042611;28;96546;-61
2023/08/01 07:57:20;;;;;;;;;6.00;5.00;;;;;26.11;100.00;97711.41;6027639;28;97212;-62
2023/08/01 08:00:25;;;;;;;;;8.00;8.00;;;;;26.25;100.00;97711.81;6026961;28;99290;-62
2023/08/01 08:03:28;;;;;;;;;6.80;6.80;;;;;26.35;100.00;97704.97;6067498;28;96435;-62
2023/08/01 08:06:31;;;;;;;;;5.80;4.80;;;;;26.18;100.00;97693.06;6034708;28;96999;-62
2023/08/01 08:09:35;;;;;;;;;7.60;7.60;;;;;26.34;100.00;97690.34;6043982;28;96386;-62
2023/08/01 08:12:38;;;;;;;;;6.00;6.00;;;;;26.41;100.00;97682.28;6044220;28;96786;-62
2023/08/01 08:15:43;;;;;;;;;7.00;6.00;;;;;26.40;100.00;97691.72;6029590;28;96672;-63
2023/08/01 08:18:46;;;;;;;;;5.75;5.75;;;;;26.36;100.00;97696.34;6032636;28;96803;-62
2023/08/01 08:21:49;;;;;;;;;4.00;4.00;;;;;26.36;100.00;97687.25;6054331;28;96644;-63
2023/08/01 08:24:52;;;;;;;;;4.60;4.00;;;;;26.54;100.00;97685.75;6041268;28;96519;-62
2023/08/01 08:27:56;;;;;;;;;6.25;5.25;;;;;26.73;100.00;97681.13;6042360;28;96926;-63
2023/08/01 08:31:01;;;;;;;;;4.00;4.00;;;;;26.85;100.00;97682.22;6041496;28;96562;-64
2023/08/01 08:34:04;;;;;;;;;8.75;7.75;;;;;27.06;100.00;97682.78;6041153;28;96676;-63
2023/08/01 08:37:08;;;;;;;;;8.50;8.00;;;;;27.29;100.00;97674.59;6035552;28;96673;-62
2023/08/01 08:40:13;;;;;;;;;8.00;8.00;;;;;27.39;100.00;97676.81;6017742;28;96696;-62
2023/08/01 08:43:18;;;;;;;;;6.50;6.50;;;;;27.44;100.00;97682.88;6044919;28;96384;-62
2023/08/01 08:46:27;;;;;;;;;9.00;8.00;;;;;27.31;100.00;97681.41;6044630;28;96614;-62
2023/08/01 08:49:32;;;;;;;;;7.00;7.00;;;;;27.20;100.00;97680.34;6044092;28;96525;-62
2023/08/01 08:52:36;;;;;;;;;8.00;8.00;;;;;27.06;100.00;97677.25;6044406;28;96462;-62
2023/08/01 08:55:40;;;;;;;;;6.80;5.80;;;;;26.81;100.00;97650.91;6044218;28;97277;-62
2023/08/01 08:58:46;;;;;;;;;8.40;8.00;;;;;26.86;100.00;97679.13;6044228;28;96460;-62
2023/08/01 09:01:51;;;;;;;;;6.00;4.00;;;;;26.71;100.00;97675.19;6026328;28;96764;-63
2023/08/01 09:04:54;;;;;;;;;6.60;6.00;;;;;26.61;100.00;97664.66;6026762;28;98458;-62
2023/08/01 09:08:01;;;;;;;;;5.25;5.00;;;;;26.65;100.00;97664.72;6015258;28;98657;-62
2023/08/01 09:11:05;;;;;;;;;7.60;6.60;;;;;26.73;100.00;97661.78;6044471;28;97027;-62
2023/08/01 09:14:08;;;;;;;;;6.00;6.00;;;;;26.79;100.00;97658.75;6032538;28;98521;-62
2023/08/01 09:17:16;;;;;;;;;5.20;5.20;;;;;26.89;100.00;97655.47;6028497;28;98647;-61
2023/08/01 09:20:19;;;;;;;;;5.00;5.00;;;;;26.90;100.00;97649.59;6044026;28;96449;-62
2023/08/01 09:23:25;;;;;;;;;6.80;6.80;;;;;26.99;100.00;97647.44;6044245;28;96585;-63
2023/08/01 09:26:31;;;;;;;;;5.00;5.00;;;;;27.03;100.00;97644.75;6044027;28;96533;-63
2023/08/01 09:29:34;;;;;;;;;7.50;7.50;;;;;27.09;100.00;97638.59;6049682;28;96742;-63
2023/08/01 09:32:39;;;;;;;;;7.40;6.40;;;;;27.14;100.00;97631.97;6036380;28;96466;-63
2023/08/01 09:35:44;;;;;;;;;7.00;7.00;;;;;27.22;100.00;97633.72;6056212;28;96327;-63
2023/08/01 09:38:47;;;;;;;;;6.00;6.00;;;;;27.28;100.00;97639.78;6043927;28;96930;-62
2023/08/01 09:41:56;;;;;;;;;6.00;5.00;;;;;27.25;100.00;97633.03;6029721;28;98680;-62
2023/08/01 09:44:59;;;;;;;;;7.00;5.40;;;;;27.12;100.00;97620.50;6048069;28;96412;-64
2023/08/01 09:48:05;;;;;;;;;6.20;6.00;;;;;27.25;100.00;97627.50;6035187;28;98501;-63
2023/08/01 09:51:10;;;;;;;;;6.00;6.00;;;;;27.35;100.00;97621.41;6048548;28;97646;-63
2023/08/01 09:54:13;;;;;;;;;6.00;6.00;;;;;27.41;100.00;97630.22;6036496;28;96732;-62
2023/08/01 09:57:18;;;;;;;;;4.40;4.40;;;;;27.36;100.00;97623.00;6047564;28;96903;-62
2023/08/01 10:00:21;;;;;;;;;8.75;8.00;;;;;27.32;100.00;97630.41;6047112;28;96450;-62
2023/08/01 10:03:27;;;;;;;;;3.80;3.80;;;;;27.29;100.00;97624.81;6047367;28;96421;-62
2023/08/01 10:06:35;;;;;;;;;5.00;5.00;;;;;27.12;100.00;97628.78;6047296;28;96613;-62
2023/08/01 10:09:39;;;;;;;;;7.00;7.00;;;;;27.06;100.00;97638.50;6062131;28;97646;-63
2023/08/01 10:12:47;;;;;;;;;6.00;6.00;;;;;26.82;100.00;97633.16;6039614;28;97112;-62
2023/08/01 10:15:51;;;;;;;;;5.20;5.00;;;;;26.64;100.00;97625.22;6022167;29;96739;-62
2023/08/01 10:18:57;;;;;;;;;8.00;7.00;;;;;26.54;100.00;97628.53;6043040;28;96459;-63
2023/08/01 10:22:02;;;;;;;;;6.60;6.60;;;;;26.41;100.00;97632.53;6057607;28;96594;-62
2023/08/01 10:25:06;;;;;;;;;8.00;8.00;;;;;26.32;100.00;97628.34;6046745;28;96978;-62
2023/08/01 10:28:10;;;;;;;;;9.00;8.00;;;;;26.17;100.00;97627.94;6036089;28;96614;-62
2023/08/01 10:31:15;;;;;;;;;9.50;9.00;;;;;26.20;100.00;97626.41;6048080;28;96638;-62
2023/08/01 10:34:20;;;;;;;;;10.00;10.00;;;;;26.06;100.00;97637.88;6036376;28;98354;-62
2023/08/01 10:37:23;;;;;;;;;7.25;6.25;;;;;26.09;100.00;97637.19;6047172;28;96382;-62
2023/08/01 10:40:34;;;;;;;;;8.40;8.00;;;;;26.10;100.00;97627.72;6046710;28;96514;-62
2023/08/01 10:43:37;;;;;;;;;7.00;7.00;;;;;26.00;100.00;97619.94;6015480;28;96756;-62
2023/08/01 10:46:49;;;;;;;;;8.75;8.00;;;;;25.92;100.00;97623.69;6038886;28;98842;-62
2023/08/01 10:49:53;;;;;;;;;7.00;7.00;;;;;25.92;100.00;97639.44;6046146;28;96351;-62
2023/08/01 10:53:04;;;;;;;;;11.40;11.00;;;;;25.88;100.00;97653.97;6047789;28;96365;-63
2023/08/01 10:56:08;;;;;;;;;9.00;8.00;;;;;25.72;100.00;97642.06;6053279;28;97310;-62
2023/08/01 10:59:11;;;;;;;;;9.00;8.00;;;;;25.70;100.00;97641.63;6027928;28;96901;-62
2023/08/01 11:02:21;;;;;;;;;10.00;9.00;;;;;25.68;100.00;97640.34;6052712;28;97079;-62
2023/08/01 11:05:28;;;;;;;;;10.00;9.00;;;;;25.69;100.00;97650.25;6043719;28;98450;-62
2023/08/01 11:08:35;;;;;;;;;10.40;9.00;;;;;25.69;100.00;97645.53;6058961;28;97423;-62
2023/08/01 11:11:39;;;;;;;;;14.80;10.80;;;;;25.67;100.00;97655.28;6029146;28;96843;-62
2023/08/01 11:14:42;;;;;;;;;9.00;7.00;;;;;25.59;100.00;97648.78;6048363;28;96727;-62
2023/08/01 11:17:49;;;;;;;;;8.00;8.00;;;;;25.53;100.00;97650.13;6044594;28;96373;-62
2023/08/01 11:20:54;;;;;;;;;9.60;9.00;;;;;25.41;100.00;97650.97;6044853;28;96664;-62
2023/08/01 11:23:57;;;;;;;;;10.00;9.00;;;;;25.37;100.00;97663.03;6059109;28;96605;-62
2023/08/01 11:27:00;;;;;;;;;8.00;8.00;;;;;25.33;100.00;97649.16;6044637;28;96419;-63
2023/08/01 11:30:05;;;;;;;;;11.00;9.00;;;;;25.30;100.00;97649.03;6051575;28;96380;-62
2023/08/01 11:33:15;;;;;;;;;11.60;8.60;;;;;25.24;100.00;97647.66;6048819;28;96391;-62
2023/08/01 11:36:22;;;;;;;;;9.50;8.00;;;;;25.18;100.00;97641.59;6026235;28;96899;-62
2023/08/01 11:39:26;;;;;;;;;8.50;7.25;;;;;25.09;100.00;97643.66;6059482;28;96612;-62
2023/08/01 11:42:32;;;;;;;;;7.40;7.40;;;;;25.02;100.00;97626.91;6024349;28;96766;-62
2023/08/01 11:45:36;;;;;;;;;9.00;9.00;;;;;24.99;100.00;97638.63;6049293;28;96897;-62
2023/08/01 11:48:40;;;;;;;;;9.00;8.00;;;;;24.92;100.00;97630.91;6030697;28;97131;-61
2023/08/01 11:51:46;;;;;;;;;7.60;7.00;;;;;24.87;100.00;97633.94;6030508;28;96420;-63
2023/08/01 11:54:49;;;;;;;;;9.00;8.00;;;;;24.74;100.00;97618.50;6029301;28;97787;-62
2023/08/01 11:57:54;;;;;;;;;10.00;10.00;;;;;24.79;100.00;97640.31;6031870;28;97376;-62
2023/08/01 12:01:04;;;;;;;;;6.40;6.00;;;;;24.70;100.00;97647.09;6038545;28;96655;-61
2023/08/01 12:04:09;;;;;;;;;8.00;7.00;;;;;24.67;100.00;97651.34;6022130;28;97057;-62
2023/08/01 12:07:16;;;;;;;;;8.00;7.00;;;;;24.54;100.00;97647.75;6017576;28;97012;-61
2023/08/01 12:10:19;;;;;;;;;8.00;8.00;;;;;24.46;100.00;97654.19;6049681;28;96510;-61
2023/08/01 12:13:23;;;;;;;;;5.80;5.80;;;;;24.37;100.00;97660.94;6056467;28;96886;-62
2023/08/01 12:16:27;;;;;;;;;6.60;6.00;;;;;24.38;100.00;97668.06;6042692;28;96393;-62
2023/08/01 12:19:30;;;;;;;;;7.40;7.40;;;;;24.23;100.00;97669.53;6030639;28;96407;-62
2023/08/01 12:22:34;;;;;;;;;6.60;6.00;;;;;24.13;100.00;97653.41;6012008;28;97399;-61
2023/08/01 12:25:37;;;;;;;;;7.00;6.60;;;;;24.08;100.00;97643.41;6013673;28;98851;-61
2023/08/01 12:28:40;;;;;;;;;5.80;5.80;;;;;24.03;100.00;97648.31;6043410;28;96861;-61
2023/08/01 12:31:45;;;;;;;;;6.75;6.00;;;;;24.03;100.00;97653.81;6046818;28;96720;-62
2023/08/01 12:34:49;;;;;;;;;6.60;6.60;;;;;24.04;100.00;97658.97;6045552;28;97402;-61
2023/08/01 12:37:54;;;;;;;;;6.60;6.60;;;;;24.02;100.00;97661.28;6051679;28;96380;-61
2023/08/01 12:40:57;;;;;;;;;7.00;6.20;;;;;24.05;100.00;97662.53;6042562;28;97122;-61
2023/08/01 12:44:00;;;;;;;;;6.00;5.50;;;;;24.04;100.00;97653.47;6056856;28;96353;-61
2023/08/01 12:47:04;;;;;;;;;8.00;7.00;;;;;24.11;100.00;97655.66;6057774;28;96283;-61
2023/08/01 12:50:08;;;;;;;;;8.00;7.00;;;;;24.17;100.00;97660.66;6026949;28;96880;-61
2023/08/01 12:53:13;;;;;;;;;5.60;4.60;;;;;24.16;100.00;97661.81;6042055;28;96378;-61
2023/08/01 12:56:16;;;;;;;;;7.00;6.40;;;;;24.17;100.00;97657.09;6053035;28;96695;-61
2023/08/01 12:59:19;;;;;;;;;7.00;6.50;;;;;24.11;100.00;97656.47;6041970;28;96699;-61
2023/08/01 13:02:23;;;;;;;;;6.25;6.00;;;;;24.03;100.00;97640.88;6051429;28;96888;-61
2023/08/01 13:05:26;;;;;;;;;6.20;6.00;;;;;24.03;100.00;97646.38;6038950;28;96611;-61
2023/08/01 13:08:31;;;;;;;;;6.00;5.00;;;;;24.00;100.00;97647.03;6023798;28;96601;-61
2023/08/01 13:11:34;;;;;;;;;7.00;7.00;;;;;23.97;100.00;97644.97;6025723;28;96769;-61
2023/08/01 13:14:37;;;;;;;;;7.00;7.00;;;;;23.98;100.00;97645.78;6042761;28;97347;-61
2023/08/01 13:17:41;;;;;;;;;5.00;5.00;;;;;23.93;100.00;97651.47;6044386;28;96414;-61
2023/08/01 13:20:44;;;;;;;;;7.50;6.75;;;;;23.78;100.00;97639.16;6046522;28;96385;-61
2023/08/01 13:23:48;;;;;;;;;4.80;4.80;;;;;23.87;100.00;97647.31;6029585;28;97146;-62
2023/08/01 13:26:52;;;;;;;;;5.00;5.00;;;;;23.74;100.00;97665.75;6061660;28;96707;-61
2023/08/01 13:29:55;;;;;;;;;4.00;3.00;;;;;23.77;100.00;97639.50;6048965;28;96494;-61
2023/08/01 13:32:59;;;;;;;;;7.00;5.40;;;;;23.64;100.00;97649.66;6047280;28;97194;-62
2023/08/01 13:36:02;;;;;;;;;5.00;5.00;;;;;23.62;100.00;97640.91;6046638;28;96486;-62
2023/08/01 13:39:06;;;;;;;;;5.00;4.00;;;;;23.53;100.00;97637.44;6043496;28;96361;-61
2023/08/01 13:42:09;;;;;;;;;6.40;6.00;;;;;23.49;100.00;97629.06;6028883;28;96967;-61
2023/08/01 13:45:12;;;;;;;;;5.50;5.00;;;;;23.40;100.00;97644.78;6060142;28;96748;-62
2023/08/01 13:48:16;;;;;;;;;5.60;5.00;;;;;23.36;100.00;97651.31;6040330;28;96535;-61
2023/08/01 13:51:19;;;;;;;;;6.00;5.00;;;;;23.36;100.00;97645.78;6040998;28;96440;-61
2023/08/01 13:54:23;;;;;;;;;5.80;5.00;;;;;23.25;100.00;97643.44;6055591;28;96437;-61
2023/08/01 13:57:27;;;;;;;;;6.33;5.00;;;;;23.08;100.00;97618.81;6056705;28;96671;-61
2023/08/01 14:00:30;;;;;;;;;6.00;5.80;;;;;23.16;100.00;97628.16;6056531;28;96264;-61
2023/08/01 14:03:34;;;;;;;;;7.60;7.60;;;;;23.07;100.00;97627.38;6050898;28;96560;-61
2023/08/01 14:06:37;;;;;;;;;8.00;7.00;;;;;22.99;100.00;97625.50;6059825;28;96867;-61
2023/08/01 14:09:42;;;;;;;;;6.00;4.00;;;;;22.97;100.00;97620.31;6045684;28;96470;-61
2023/08/01 14:12:45;;;;;;;;;5.00;5.00;;;;;22.86;100.00;97608.94;6028091;28;96731;-61
2023/08/01 14:15:48;;;;;;;;;3.00;3.00;;;;;22.85;100.00;97623.00;6043830;28;96668;-62